sensor_id;sensor_type;location;lat;lon;timestamp;P1;durP1;ratioP1;P2;durP2;ratioP2
56399;SDS011;42298;53.638;9.876;2023-08-30T00:00:37;5.45;;;3.70;;
56399;SDS011;42298;53.638;9.876;2023-08-30T00:03:04;6.68;;;3.97;;
56399;SDS011;42298;53.638;9.876;2023-08-30T00:05:30;6.28;;;4.05;;
56399;SDS011;42298;53.638;9.876;2023-08-30T00:07:58;7.75;;;3.78;;
56399;SDS011;42298;53.638;9.876;2023-08-30T00:10:23;7.40;;;3.35;;
56399;SDS011;42298;53.638;9.876;2023-08-30T00:12:49;5.53;;;3.30;;
56399;SDS011;42298;53.638;9.876;2023-08-30T00:15:14;6.45;;;3.70;;
56399;SDS011;42298;53.638;9.876;2023-08-30T00:17:40;5.63;;;3.67;;
56399;SDS011;42298;53.638;9.876;2023-08-30T00:20:06;6.30;;;4.10;;
56399;SDS011;42298;53.638;9.876;2023-08-30T00:22:33;6.22;;;3.60;;
56399;SDS011;42298;53.638;9.876;2023-08-30T00:24:59;4.55;;;3.17;;
56399;SDS011;42298;53.638;9.876;2023-08-30T00:27:24;8.77;;;4.00;;
56399;SDS011;42298;53.638;9.876;2023-08-30T00:29:50;7.03;;;3.72;;
56399;SDS011;42298;53.638;9.876;2023-08-30T00:32:15;6.70;;;3.40;;
56399;SDS011;42298;53.638;9.876;2023-08-30T00:34:40;6.18;;;3.10;;
56399;SDS011;42298;53.638;9.876;2023-08-30T00:37:05;7.65;;;3.55;;
56399;SDS011;42298;53.638;9.876;2023-08-30T00:39:31;6.80;;;3.47;;
56399;SDS011;42298;53.638;9.876;2023-08-30T00:41:57;7.55;;;3.90;;
56399;SDS011;42298;53.638;9.876;2023-08-30T00:44:23;5.15;;;3.30;;
56399;SDS011;42298;53.638;9.876;2023-08-30T00:46:52;5.55;;;3.40;;
56399;SDS011;42298;53.638;9.876;2023-08-30T00:49:17;5.65;;;3.42;;
56399;SDS011;42298;53.638;9.876;2023-08-30T00:51:42;7.25;;;4.00;;
56399;SDS011;42298;53.638;9.876;2023-08-30T00:54:08;10.30;;;4.28;;
56399;SDS011;42298;53.638;9.876;2023-08-30T00:56:33;6.50;;;4.13;;
56399;SDS011;42298;53.638;9.876;2023-08-30T00:58:58;5.93;;;4.00;;
56399;SDS011;42298;53.638;9.876;2023-08-30T01:01:24;5.55;;;3.40;;
56399;SDS011;42298;53.638;9.876;2023-08-30T01:03:51;5.65;;;3.45;;
56399;SDS011;42298;53.638;9.876;2023-08-30T01:06:16;5.63;;;3.45;;
56399;SDS011;42298;53.638;9.876;2023-08-30T01:08:43;7.22;;;4.20;;
56399;SDS011;42298;53.638;9.876;2023-08-30T01:14:09;8.25;;;4.50;;
56399;SDS011;42298;53.638;9.876;2023-08-30T01:16:38;4.82;;;3.45;;
56399;SDS011;42298;53.638;9.876;2023-08-30T01:19:06;5.95;;;3.90;;
56399;SDS011;42298;53.638;9.876;2023-08-30T01:24:22;6.70;;;3.85;;
56399;SDS011;42298;53.638;9.876;2023-08-30T01:27:07;5.55;;;3.65;;
56399;SDS011;42298;53.638;9.876;2023-08-30T01:29:34;5.15;;;3.38;;
56399;SDS011;42298;53.638;9.876;2023-08-30T01:32:01;6.90;;;4.15;;
56399;SDS011;42298;53.638;9.876;2023-08-30T01:34:27;5.70;;;3.75;;
56399;SDS011;42298;53.638;9.876;2023-08-30T01:36:53;5.68;;;3.83;;
56399;SDS011;42298;53.638;9.876;2023-08-30T01:39:19;5.85;;;3.70;;
56399;SDS011;42298;53.638;9.876;2023-08-30T01:41:47;7.40;;;3.90;;
56399;SDS011;42298;53.638;9.876;2023-08-30T01:44:12;8.52;;;4.45;;
56399;SDS011;42298;53.638;9.876;2023-08-30T01:46:42;8.25;;;3.85;;
56399;SDS011;42298;53.638;9.876;2023-08-30T01:49:11;5.22;;;3.55;;
56399;SDS011;42298;53.638;9.876;2023-08-30T01:51:37;4.07;;;2.92;;
56399;SDS011;42298;53.638;9.876;2023-08-30T01:54:03;7.38;;;3.80;;
56399;SDS011;42298;53.638;9.876;2023-08-30T01:56:30;7.60;;;4.07;;
56399;SDS011;42298;53.638;9.876;2023-08-30T01:58:55;6.30;;;3.60;;
56399;SDS011;42298;53.638;9.876;2023-08-30T02:01:20;6.80;;;3.95;;
56399;SDS011;42298;53.638;9.876;2023-08-30T02:03:45;7.55;;;3.80;;
56399;SDS011;42298;53.638;9.876;2023-08-30T02:06:12;6.65;;;3.60;;
56399;SDS011;42298;53.638;9.876;2023-08-30T02:08:55;7.80;;;3.95;;
56399;SDS011;42298;53.638;9.876;2023-08-30T02:11:27;6.95;;;3.83;;
56399;SDS011;42298;53.638;9.876;2023-08-30T02:13:57;11.00;;;3.95;;
56399;SDS011;42298;53.638;9.876;2023-08-30T02:16:25;7.47;;;3.85;;
56399;SDS011;42298;53.638;9.876;2023-08-30T02:18:52;7.95;;;4.10;;
56399;SDS011;42298;53.638;9.876;2023-08-30T02:21:18;5.88;;;3.63;;
56399;SDS011;42298;53.638;9.876;2023-08-30T02:23:49;6.53;;;3.55;;
56399;SDS011;42298;53.638;9.876;2023-08-30T02:26:15;7.68;;;4.15;;
56399;SDS011;42298;53.638;9.876;2023-08-30T02:28:40;7.25;;;3.80;;
56399;SDS011;42298;53.638;9.876;2023-08-30T02:31:05;6.53;;;3.53;;
56399;SDS011;42298;53.638;9.876;2023-08-30T02:33:30;6.00;;;3.83;;
56399;SDS011;42298;53.638;9.876;2023-08-30T02:35:56;7.20;;;4.45;;
56399;SDS011;42298;53.638;9.876;2023-08-30T02:38:21;5.30;;;4.03;;
56399;SDS011;42298;53.638;9.876;2023-08-30T02:40:47;6.40;;;4.07;;
56399;SDS011;42298;53.638;9.876;2023-08-30T02:43:12;6.70;;;3.97;;
56399;SDS011;42298;53.638;9.876;2023-08-30T02:45:43;6.38;;;3.80;;
56399;SDS011;42298;53.638;9.876;2023-08-30T02:48:08;6.50;;;3.72;;
56399;SDS011;42298;53.638;9.876;2023-08-30T02:50:33;6.68;;;4.05;;
56399;SDS011;42298;53.638;9.876;2023-08-30T02:52:59;7.25;;;4.20;;
56399;SDS011;42298;53.638;9.876;2023-08-30T02:55:25;6.93;;;4.07;;
56399;SDS011;42298;53.638;9.876;2023-08-30T02:57:50;6.93;;;4.30;;
56399;SDS011;42298;53.638;9.876;2023-08-30T03:00:16;5.88;;;3.50;;
56399;SDS011;42298;53.638;9.876;2023-08-30T03:02:41;7.15;;;4.03;;
56399;SDS011;42298;53.638;9.876;2023-08-30T03:05:06;8.50;;;4.75;;
56399;SDS011;42298;53.638;9.876;2023-08-30T03:07:32;6.82;;;4.43;;
56399;SDS011;42298;53.638;9.876;2023-08-30T03:09:57;8.43;;;5.00;;
56399;SDS011;42298;53.638;9.876;2023-08-30T03:12:24;10.85;;;4.70;;
56399;SDS011;42298;53.638;9.876;2023-08-30T03:14:50;7.07;;;4.43;;
56399;SDS011;42298;53.638;9.876;2023-08-30T03:17:17;6.90;;;4.35;;
56399;SDS011;42298;53.638;9.876;2023-08-30T03:19:43;9.13;;;4.65;;
56399;SDS011;42298;53.638;9.876;2023-08-30T03:22:08;7.13;;;4.32;;
56399;SDS011;42298;53.638;9.876;2023-08-30T03:24:33;8.65;;;4.80;;
56399;SDS011;42298;53.638;9.876;2023-08-30T03:27:00;10.38;;;4.32;;
56399;SDS011;42298;53.638;9.876;2023-08-30T03:29:25;8.48;;;5.50;;
56399;SDS011;42298;53.638;9.876;2023-08-30T03:31:50;8.25;;;4.68;;
56399;SDS011;42298;53.638;9.876;2023-08-30T03:34:16;8.10;;;4.60;;
56399;SDS011;42298;53.638;9.876;2023-08-30T03:36:42;8.10;;;4.65;;
56399;SDS011;42298;53.638;9.876;2023-08-30T03:39:09;8.50;;;4.93;;
56399;SDS011;42298;53.638;9.876;2023-08-30T03:41:34;7.40;;;4.85;;
56399;SDS011;42298;53.638;9.876;2023-08-30T03:44:00;10.50;;;5.57;;
56399;SDS011;42298;53.638;9.876;2023-08-30T03:46:25;9.50;;;5.95;;
56399;SDS011;42298;53.638;9.876;2023-08-30T03:48:51;9.13;;;5.72;;
56399;SDS011;42298;53.638;9.876;2023-08-30T03:51:17;7.65;;;5.03;;
56399;SDS011;42298;53.638;9.876;2023-08-30T03:53:42;8.15;;;5.32;;
56399;SDS011;42298;53.638;9.876;2023-08-30T03:56:08;10.57;;;6.13;;
56399;SDS011;42298;53.638;9.876;2023-08-30T03:58:33;7.95;;;4.75;;
56399;SDS011;42298;53.638;9.876;2023-08-30T04:00:58;9.40;;;5.35;;
56399;SDS011;42298;53.638;9.876;2023-08-30T04:03:23;9.20;;;5.40;;
56399;SDS011;42298;53.638;9.876;2023-08-30T04:05:54;11.75;;;7.00;;
56399;SDS011;42298;53.638;9.876;2023-08-30T04:08:22;11.20;;;6.72;;
56399;SDS011;42298;53.638;9.876;2023-08-30T04:10:47;10.68;;;7.00;;
56399;SDS011;42298;53.638;9.876;2023-08-30T04:13:14;12.43;;;7.60;;
56399;SDS011;42298;53.638;9.876;2023-08-30T04:15:40;12.40;;;7.38;;
56399;SDS011;42298;53.638;9.876;2023-08-30T04:18:05;11.20;;;7.87;;
56399;SDS011;42298;53.638;9.876;2023-08-30T04:20:31;14.18;;;8.52;;
56399;SDS011;42298;53.638;9.876;2023-08-30T04:22:58;11.85;;;7.60;;
56399;SDS011;42298;53.638;9.876;2023-08-30T04:25:26;8.48;;;5.55;;
56399;SDS011;42298;53.638;9.876;2023-08-30T04:27:52;9.35;;;5.53;;
56399;SDS011;42298;53.638;9.876;2023-08-30T04:30:18;8.70;;;5.45;;
56399;SDS011;42298;53.638;9.876;2023-08-30T04:32:43;9.10;;;5.55;;
56399;SDS011;42298;53.638;9.876;2023-08-30T04:35:11;8.95;;;5.50;;
56399;SDS011;42298;53.638;9.876;2023-08-30T04:37:36;10.68;;;6.75;;
56399;SDS011;42298;53.638;9.876;2023-08-30T04:40:06;11.40;;;7.43;;
56399;SDS011;42298;53.638;9.876;2023-08-30T04:42:33;11.60;;;7.68;;
56399;SDS011;42298;53.638;9.876;2023-08-30T04:45:00;11.05;;;7.25;;
56399;SDS011;42298;53.638;9.876;2023-08-30T04:47:28;11.68;;;7.47;;
56399;SDS011;42298;53.638;9.876;2023-08-30T04:49:54;10.60;;;6.25;;
56399;SDS011;42298;53.638;9.876;2023-08-30T04:52:19;11.18;;;7.05;;
56399;SDS011;42298;53.638;9.876;2023-08-30T04:54:45;10.20;;;6.60;;
56399;SDS011;42298;53.638;9.876;2023-08-30T04:57:10;8.55;;;5.15;;
56399;SDS011;42298;53.638;9.876;2023-08-30T04:59:39;11.70;;;7.20;;
56399;SDS011;42298;53.638;9.876;2023-08-30T05:02:05;11.85;;;6.65;;
56399;SDS011;42298;53.638;9.876;2023-08-30T05:04:30;9.10;;;5.88;;
56399;SDS011;42298;53.638;9.876;2023-08-30T05:06:56;10.68;;;5.85;;
56399;SDS011;42298;53.638;9.876;2023-08-30T05:09:21;9.57;;;5.38;;
56399;SDS011;42298;53.638;9.876;2023-08-30T05:11:49;9.05;;;5.43;;
56399;SDS011;42298;53.638;9.876;2023-08-30T05:14:15;9.52;;;5.75;;
56399;SDS011;42298;53.638;9.876;2023-08-30T05:16:40;8.30;;;5.45;;
56399;SDS011;42298;53.638;9.876;2023-08-30T05:19:06;8.32;;;4.95;;
56399;SDS011;42298;53.638;9.876;2023-08-30T05:21:31;9.52;;;5.50;;
56399;SDS011;42298;53.638;9.876;2023-08-30T05:23:56;8.98;;;5.18;;
56399;SDS011;42298;53.638;9.876;2023-08-30T05:26:21;8.13;;;5.18;;
56399;SDS011;42298;53.638;9.876;2023-08-30T05:28:47;8.70;;;5.20;;
56399;SDS011;42298;53.638;9.876;2023-08-30T05:31:12;9.75;;;5.90;;
56399;SDS011;42298;53.638;9.876;2023-08-30T05:33:37;10.75;;;5.75;;
56399;SDS011;42298;53.638;9.876;2023-08-30T05:36:03;12.77;;;5.55;;
56399;SDS011;42298;53.638;9.876;2023-08-30T05:38:28;8.82;;;5.25;;
56399;SDS011;42298;53.638;9.876;2023-08-30T05:40:53;12.02;;;6.03;;
56399;SDS011;42298;53.638;9.876;2023-08-30T05:43:19;8.55;;;4.90;;
56399;SDS011;42298;53.638;9.876;2023-08-30T05:45:45;10.98;;;5.53;;
56399;SDS011;42298;53.638;9.876;2023-08-30T05:48:10;9.80;;;6.22;;
56399;SDS011;42298;53.638;9.876;2023-08-30T05:50:36;10.82;;;5.22;;
56399;SDS011;42298;53.638;9.876;2023-08-30T05:53:02;9.10;;;5.80;;
56399;SDS011;42298;53.638;9.876;2023-08-30T05:55:29;10.68;;;5.65;;
56399;SDS011;42298;53.638;9.876;2023-08-30T05:57:54;11.25;;;6.55;;
56399;SDS011;42298;53.638;9.876;2023-08-30T06:00:19;9.43;;;5.93;;
56399;SDS011;42298;53.638;9.876;2023-08-30T06:02:46;8.38;;;5.15;;
56399;SDS011;42298;53.638;9.876;2023-08-30T06:05:11;9.40;;;6.27;;
56399;SDS011;42298;53.638;9.876;2023-08-30T06:07:36;10.88;;;5.82;;
56399;SDS011;42298;53.638;9.876;2023-08-30T06:10:03;10.00;;;5.78;;
56399;SDS011;42298;53.638;9.876;2023-08-30T06:12:29;8.43;;;4.97;;
56399;SDS011;42298;53.638;9.876;2023-08-30T06:14:55;10.13;;;5.68;;
56399;SDS011;42298;53.638;9.876;2023-08-30T06:17:20;10.00;;;6.03;;
56399;SDS011;42298;53.638;9.876;2023-08-30T06:19:46;10.30;;;5.80;;
56399;SDS011;42298;53.638;9.876;2023-08-30T06:22:12;8.10;;;4.93;;
56399;SDS011;42298;53.638;9.876;2023-08-30T06:24:37;10.68;;;5.95;;
56399;SDS011;42298;53.638;9.876;2023-08-30T06:27:03;9.85;;;5.82;;
56399;SDS011;42298;53.638;9.876;2023-08-30T06:29:28;8.30;;;5.22;;
56399;SDS011;42298;53.638;9.876;2023-08-30T06:31:54;9.98;;;5.93;;
56399;SDS011;42298;53.638;9.876;2023-08-30T06:34:19;12.43;;;7.25;;
56399;SDS011;42298;53.638;9.876;2023-08-30T06:36:45;12.68;;;8.43;;
56399;SDS011;42298;53.638;9.876;2023-08-30T06:39:10;10.75;;;6.90;;
56399;SDS011;42298;53.638;9.876;2023-08-30T06:41:35;11.55;;;6.45;;
56399;SDS011;42298;53.638;9.876;2023-08-30T06:44:01;12.40;;;8.50;;
56399;SDS011;42298;53.638;9.876;2023-08-30T06:46:26;11.15;;;6.93;;
56399;SDS011;42298;53.638;9.876;2023-08-30T06:48:52;11.85;;;7.28;;
56399;SDS011;42298;53.638;9.876;2023-08-30T06:51:17;13.98;;;7.85;;
56399;SDS011;42298;53.638;9.876;2023-08-30T06:53:42;14.35;;;8.82;;
56399;SDS011;42298;53.638;9.876;2023-08-30T06:56:08;12.18;;;6.97;;
56399;SDS011;42298;53.638;9.876;2023-08-30T06:58:33;9.95;;;6.60;;
56399;SDS011;42298;53.638;9.876;2023-08-30T07:00:58;13.65;;;8.25;;
56399;SDS011;42298;53.638;9.876;2023-08-30T07:03:24;12.38;;;8.20;;
56399;SDS011;42298;53.638;9.876;2023-08-30T07:05:52;12.45;;;7.80;;
56399;SDS011;42298;53.638;9.876;2023-08-30T07:08:17;12.77;;;7.45;;
56399;SDS011;42298;53.638;9.876;2023-08-30T07:10:43;11.85;;;8.30;;
56399;SDS011;42298;53.638;9.876;2023-08-30T07:13:08;13.18;;;7.88;;
56399;SDS011;42298;53.638;9.876;2023-08-30T07:15:38;12.00;;;8.25;;
56399;SDS011;42298;53.638;9.876;2023-08-30T07:18:04;11.48;;;8.32;;
56399;SDS011;42298;53.638;9.876;2023-08-30T07:20:30;17.40;;;11.15;;
56399;SDS011;42298;53.638;9.876;2023-08-30T07:22:56;28.10;;;20.35;;
56399;SDS011;42298;53.638;9.876;2023-08-30T07:25:21;16.13;;;10.05;;
56399;SDS011;42298;53.638;9.876;2023-08-30T07:27:46;27.65;;;18.63;;
56399;SDS011;42298;53.638;9.876;2023-08-30T07:30:12;16.58;;;10.95;;
56399;SDS011;42298;53.638;9.876;2023-08-30T07:32:37;12.88;;;9.63;;
56399;SDS011;42298;53.638;9.876;2023-08-30T07:35:03;14.00;;;9.82;;
56399;SDS011;42298;53.638;9.876;2023-08-30T07:37:29;13.75;;;11.05;;
56399;SDS011;42298;53.638;9.876;2023-08-30T07:39:54;14.10;;;9.45;;
56399;SDS011;42298;53.638;9.876;2023-08-30T07:42:19;15.10;;;10.70;;
56399;SDS011;42298;53.638;9.876;2023-08-30T07:44:46;13.52;;;9.93;;
56399;SDS011;42298;53.638;9.876;2023-08-30T07:47:12;14.90;;;10.15;;
56399;SDS011;42298;53.638;9.876;2023-08-30T07:49:37;12.35;;;9.20;;
56399;SDS011;42298;53.638;9.876;2023-08-30T07:52:03;15.73;;;11.13;;
56399;SDS011;42298;53.638;9.876;2023-08-30T07:54:29;13.38;;;9.52;;
56399;SDS011;42298;53.638;9.876;2023-08-30T07:56:55;11.77;;;8.57;;
56399;SDS011;42298;53.638;9.876;2023-08-30T07:59:21;15.00;;;10.38;;
56399;SDS011;42298;53.638;9.876;2023-08-30T08:01:46;14.90;;;10.70;;
56399;SDS011;42298;53.638;9.876;2023-08-30T08:04:11;13.05;;;9.48;;
56399;SDS011;42298;53.638;9.876;2023-08-30T08:06:37;13.45;;;9.05;;
56399;SDS011;42298;53.638;9.876;2023-08-30T08:09:04;13.40;;;9.70;;
56399;SDS011;42298;53.638;9.876;2023-08-30T08:11:30;13.60;;;8.98;;
56399;SDS011;42298;53.638;9.876;2023-08-30T08:13:56;13.60;;;9.00;;
56399;SDS011;42298;53.638;9.876;2023-08-30T08:16:21;12.80;;;8.90;;
56399;SDS011;42298;53.638;9.876;2023-08-30T08:18:47;12.60;;;8.23;;
56399;SDS011;42298;53.638;9.876;2023-08-30T08:21:12;12.73;;;8.43;;
56399;SDS011;42298;53.638;9.876;2023-08-30T08:23:38;13.77;;;9.25;;
56399;SDS011;42298;53.638;9.876;2023-08-30T08:26:03;17.50;;;13.05;;
56399;SDS011;42298;53.638;9.876;2023-08-30T08:28:28;12.77;;;8.30;;
56399;SDS011;42298;53.638;9.876;2023-08-30T08:30:54;15.00;;;10.77;;
56399;SDS011;42298;53.638;9.876;2023-08-30T08:33:20;13.00;;;8.52;;
56399;SDS011;42298;53.638;9.876;2023-08-30T08:35:48;12.32;;;8.18;;
56399;SDS011;42298;53.638;9.876;2023-08-30T08:38:14;12.07;;;8.48;;
56399;SDS011;42298;53.638;9.876;2023-08-30T08:40:39;14.38;;;8.93;;
56399;SDS011;42298;53.638;9.876;2023-08-30T08:43:05;13.07;;;8.68;;
56399;SDS011;42298;53.638;9.876;2023-08-30T08:45:35;13.90;;;9.65;;
56399;SDS011;42298;53.638;9.876;2023-08-30T08:48:03;12.52;;;8.55;;
56399;SDS011;42298;53.638;9.876;2023-08-30T08:50:30;12.98;;;7.72;;
56399;SDS011;42298;53.638;9.876;2023-08-30T08:52:56;14.40;;;9.00;;
56399;SDS011;42298;53.638;9.876;2023-08-30T08:55:22;12.85;;;8.77;;
56399;SDS011;42298;53.638;9.876;2023-08-30T08:57:48;11.73;;;7.85;;
56399;SDS011;42298;53.638;9.876;2023-08-30T09:00:13;13.07;;;8.30;;
56399;SDS011;42298;53.638;9.876;2023-08-30T09:02:41;13.95;;;8.85;;
56399;SDS011;42298;53.638;9.876;2023-08-30T09:05:07;13.75;;;8.15;;
56399;SDS011;42298;53.638;9.876;2023-08-30T09:07:34;15.38;;;7.70;;
56399;SDS011;42298;53.638;9.876;2023-08-30T09:10:01;10.60;;;6.18;;
56399;SDS011;42298;53.638;9.876;2023-08-30T09:12:26;8.15;;;5.32;;
56399;SDS011;42298;53.638;9.876;2023-08-30T09:14:55;10.40;;;4.95;;
56399;SDS011;42298;53.638;9.876;2023-08-30T09:17:21;8.48;;;4.88;;
56399;SDS011;42298;53.638;9.876;2023-08-30T09:19:46;9.23;;;5.30;;
56399;SDS011;42298;53.638;9.876;2023-08-30T09:22:12;10.52;;;5.50;;
56399;SDS011;42298;53.638;9.876;2023-08-30T09:24:38;9.07;;;5.32;;
56399;SDS011;42298;53.638;9.876;2023-08-30T09:27:04;9.73;;;4.20;;
56399;SDS011;42298;53.638;9.876;2023-08-30T09:29:29;8.05;;;4.47;;
56399;SDS011;42298;53.638;9.876;2023-08-30T09:31:55;9.45;;;5.00;;
56399;SDS011;42298;53.638;9.876;2023-08-30T09:34:24;6.93;;;4.10;;
56399;SDS011;42298;53.638;9.876;2023-08-30T09:36:50;7.50;;;4.35;;
56399;SDS011;42298;53.638;9.876;2023-08-30T09:39:16;9.13;;;4.85;;
56399;SDS011;42298;53.638;9.876;2023-08-30T09:41:44;7.25;;;4.60;;
56399;SDS011;42298;53.638;9.876;2023-08-30T09:44:11;10.13;;;4.82;;
56399;SDS011;42298;53.638;9.876;2023-08-30T09:46:52;9.85;;;5.05;;
56399;SDS011;42298;53.638;9.876;2023-08-30T09:49:20;9.07;;;4.72;;
56399;SDS011;42298;53.638;9.876;2023-08-30T09:51:46;9.27;;;4.97;;
56399;SDS011;42298;53.638;9.876;2023-08-30T09:54:16;8.65;;;4.32;;
56399;SDS011;42298;53.638;9.876;2023-08-30T09:56:43;11.48;;;5.38;;
56399;SDS011;42298;53.638;9.876;2023-08-30T09:59:11;8.90;;;5.38;;
56399;SDS011;42298;53.638;9.876;2023-08-30T10:01:41;9.25;;;5.13;;
56399;SDS011;42298;53.638;9.876;2023-08-30T10:04:08;9.98;;;5.40;;
56399;SDS011;42298;53.638;9.876;2023-08-30T10:06:34;10.40;;;5.22;;
56399;SDS011;42298;53.638;9.876;2023-08-30T10:09:01;10.18;;;4.70;;
56399;SDS011;42298;53.638;9.876;2023-08-30T10:11:28;10.02;;;5.28;;
56399;SDS011;42298;53.638;9.876;2023-08-30T10:13:54;10.00;;;5.68;;
56399;SDS011;42298;53.638;9.876;2023-08-30T10:16:20;8.93;;;4.80;;
56399;SDS011;42298;53.638;9.876;2023-08-30T10:18:52;9.88;;;5.80;;
56399;SDS011;42298;53.638;9.876;2023-08-30T10:21:19;10.02;;;5.07;;
56399;SDS011;42298;53.638;9.876;2023-08-30T10:23:46;10.82;;;5.40;;
56399;SDS011;42298;53.638;9.876;2023-08-30T10:26:15;10.35;;;4.43;;
56399;SDS011;42298;53.638;9.876;2023-08-30T10:28:42;7.63;;;4.43;;
56399;SDS011;42298;53.638;9.876;2023-08-30T10:31:08;10.15;;;4.40;;
56399;SDS011;42298;53.638;9.876;2023-08-30T10:33:46;8.98;;;4.78;;
56399;SDS011;42298;53.638;9.876;2023-08-30T10:36:19;11.98;;;6.15;;
56399;SDS011;42298;53.638;9.876;2023-08-30T10:38:48;9.25;;;4.50;;
56399;SDS011;42298;53.638;9.876;2023-08-30T10:41:19;8.85;;;5.10;;
56399;SDS011;42298;53.638;9.876;2023-08-30T10:43:48;9.48;;;5.35;;
56399;SDS011;42298;53.638;9.876;2023-08-30T10:46:14;11.20;;;5.50;;
56399;SDS011;42298;53.638;9.876;2023-08-30T10:48:40;9.85;;;5.60;;
56399;SDS011;42298;53.638;9.876;2023-08-30T10:51:20;10.73;;;5.88;;
56399;SDS011;42298;53.638;9.876;2023-08-30T10:53:56;8.93;;;5.30;;
56399;SDS011;42298;53.638;9.876;2023-08-30T10:56:30;8.15;;;4.65;;
56399;SDS011;42298;53.638;9.876;2023-08-30T10:58:56;10.73;;;5.50;;
56399;SDS011;42298;53.638;9.876;2023-08-30T11:01:21;10.45;;;5.28;;
56399;SDS011;42298;53.638;9.876;2023-08-30T11:03:47;11.30;;;6.05;;
56399;SDS011;42298;53.638;9.876;2023-08-30T11:06:14;10.90;;;5.97;;
56399;SDS011;42298;53.638;9.876;2023-08-30T11:08:42;9.50;;;5.40;;
56399;SDS011;42298;53.638;9.876;2023-08-30T11:11:08;8.40;;;4.93;;
56399;SDS011;42298;53.638;9.876;2023-08-30T11:13:36;9.18;;;5.22;;
56399;SDS011;42298;53.638;9.876;2023-08-30T11:16:03;8.25;;;4.70;;
56399;SDS011;42298;53.638;9.876;2023-08-30T11:18:29;10.40;;;6.00;;
56399;SDS011;42298;53.638;9.876;2023-08-30T11:21:01;10.93;;;4.93;;
56399;SDS011;42298;53.638;9.876;2023-08-30T11:23:27;8.50;;;5.10;;
56399;SDS011;42298;53.638;9.876;2023-08-30T11:25:53;9.82;;;5.20;;
56399;SDS011;42298;53.638;9.876;2023-08-30T11:28:25;11.05;;;6.13;;
56399;SDS011;42298;53.638;9.876;2023-08-30T11:30:54;9.05;;;5.25;;
56399;SDS011;42298;53.638;9.876;2023-08-30T11:33:22;11.63;;;5.43;;
56399;SDS011;42298;53.638;9.876;2023-08-30T11:35:48;10.07;;;5.82;;
56399;SDS011;42298;53.638;9.876;2023-08-30T11:38:15;10.68;;;5.85;;
56399;SDS011;42298;53.638;9.876;2023-08-30T11:40:41;10.55;;;5.90;;
56399;SDS011;42298;53.638;9.876;2023-08-30T11:43:07;9.90;;;5.68;;
56399;SDS011;42298;53.638;9.876;2023-08-30T11:45:32;10.48;;;5.80;;
56399;SDS011;42298;53.638;9.876;2023-08-30T11:48:01;10.18;;;5.43;;
56399;SDS011;42298;53.638;9.876;2023-08-30T11:50:28;11.50;;;6.90;;
56399;SDS011;42298;53.638;9.876;2023-08-30T11:52:54;11.13;;;5.68;;
56399;SDS011;42298;53.638;9.876;2023-08-30T11:55:20;10.82;;;6.25;;
56399;SDS011;42298;53.638;9.876;2023-08-30T11:57:49;9.93;;;5.40;;
56399;SDS011;42298;53.638;9.876;2023-08-30T12:00:17;11.02;;;6.63;;
56399;SDS011;42298;53.638;9.876;2023-08-30T12:02:44;8.05;;;5.03;;
56399;SDS011;42298;53.638;9.876;2023-08-30T12:05:11;11.75;;;6.72;;
56399;SDS011;42298;53.638;9.876;2023-08-30T12:07:37;10.73;;;5.43;;
56399;SDS011;42298;53.638;9.876;2023-08-30T12:10:07;9.52;;;5.65;;
56399;SDS011;42298;53.638;9.876;2023-08-30T12:12:33;10.40;;;6.00;;
56399;SDS011;42298;53.638;9.876;2023-08-30T12:15:11;11.25;;;5.72;;
56399;SDS011;42298;53.638;9.876;2023-08-30T12:17:37;9.98;;;5.75;;
56399;SDS011;42298;53.638;9.876;2023-08-30T12:20:03;10.43;;;5.07;;
56399;SDS011;42298;53.638;9.876;2023-08-30T12:22:38;8.85;;;5.15;;
56399;SDS011;42298;53.638;9.876;2023-08-30T12:25:04;8.75;;;5.07;;
56399;SDS011;42298;53.638;9.876;2023-08-30T12:27:40;11.50;;;5.43;;
56399;SDS011;42298;53.638;9.876;2023-08-30T12:30:06;12.05;;;5.60;;
56399;SDS011;42298;53.638;9.876;2023-08-30T12:32:31;8.55;;;4.97;;
56399;SDS011;42298;53.638;9.876;2023-08-30T12:34:57;9.32;;;5.40;;
56399;SDS011;42298;53.638;9.876;2023-08-30T12:37:23;10.77;;;5.85;;
56399;SDS011;42298;53.638;9.876;2023-08-30T12:39:49;9.48;;;5.57;;
56399;SDS011;42298;53.638;9.876;2023-08-30T12:42:14;12.45;;;6.32;;
56399;SDS011;42298;53.638;9.876;2023-08-30T12:44:39;11.25;;;5.75;;
56399;SDS011;42298;53.638;9.876;2023-08-30T12:47:05;11.43;;;5.95;;
56399;SDS011;42298;53.638;9.876;2023-08-30T12:49:31;7.90;;;5.03;;
56399;SDS011;42298;53.638;9.876;2023-08-30T12:51:57;10.05;;;5.38;;
56399;SDS011;42298;53.638;9.876;2023-08-30T12:54:22;9.50;;;5.25;;
56399;SDS011;42298;53.638;9.876;2023-08-30T12:56:48;8.48;;;4.80;;
56399;SDS011;42298;53.638;9.876;2023-08-30T12:59:13;12.18;;;5.28;;
56399;SDS011;42298;53.638;9.876;2023-08-30T13:01:38;8.90;;;5.03;;
56399;SDS011;42298;53.638;9.876;2023-08-30T13:04:04;9.95;;;5.30;;
56399;SDS011;42298;53.638;9.876;2023-08-30T13:06:29;9.70;;;5.45;;
56399;SDS011;42298;53.638;9.876;2023-08-30T13:08:54;10.13;;;4.70;;
56399;SDS011;42298;53.638;9.876;2023-08-30T13:11:20;9.10;;;4.60;;
56399;SDS011;42298;53.638;9.876;2023-08-30T13:13:45;8.38;;;4.35;;
56399;SDS011;42298;53.638;9.876;2023-08-30T13:16:10;7.65;;;4.22;;
56399;SDS011;42298;53.638;9.876;2023-08-30T13:18:35;10.38;;;4.88;;
56399;SDS011;42298;53.638;9.876;2023-08-30T13:21:01;8.80;;;4.32;;
56399;SDS011;42298;53.638;9.876;2023-08-30T13:23:26;9.98;;;5.00;;
56399;SDS011;42298;53.638;9.876;2023-08-30T13:25:51;11.05;;;5.43;;
56399;SDS011;42298;53.638;9.876;2023-08-30T13:28:16;9.13;;;4.93;;
56399;SDS011;42298;53.638;9.876;2023-08-30T13:30:45;8.88;;;4.80;;
56399;SDS011;42298;53.638;9.876;2023-08-30T13:33:11;6.07;;;3.80;;
56399;SDS011;42298;53.638;9.876;2023-08-30T13:35:38;9.68;;;4.93;;
56399;SDS011;42298;53.638;9.876;2023-08-30T13:38:04;11.00;;;4.80;;
56399;SDS011;42298;53.638;9.876;2023-08-30T13:40:29;8.50;;;4.38;;
56399;SDS011;42298;53.638;9.876;2023-08-30T13:42:54;9.00;;;4.28;;
56399;SDS011;42298;53.638;9.876;2023-08-30T13:45:20;8.75;;;4.47;;
56399;SDS011;42298;53.638;9.876;2023-08-30T13:47:45;9.50;;;4.63;;
56399;SDS011;42298;53.638;9.876;2023-08-30T13:50:11;10.23;;;4.90;;
56399;SDS011;42298;53.638;9.876;2023-08-30T13:52:37;9.90;;;4.90;;
56399;SDS011;42298;53.638;9.876;2023-08-30T13:55:02;9.32;;;4.97;;
56399;SDS011;42298;53.638;9.876;2023-08-30T13:57:28;8.80;;;4.50;;
56399;SDS011;42298;53.638;9.876;2023-08-30T13:59:53;7.35;;;4.47;;
56399;SDS011;42298;53.638;9.876;2023-08-30T14:02:19;8.85;;;3.83;;
56399;SDS011;42298;53.638;9.876;2023-08-30T14:04:44;9.13;;;4.20;;
56399;SDS011;42298;53.638;9.876;2023-08-30T14:07:09;9.15;;;4.63;;
56399;SDS011;42298;53.638;9.876;2023-08-30T14:09:36;8.73;;;4.57;;
56399;SDS011;42298;53.638;9.876;2023-08-30T14:12:02;7.90;;;3.90;;
56399;SDS011;42298;53.638;9.876;2023-08-30T14:14:28;7.97;;;4.20;;
56399;SDS011;42298;53.638;9.876;2023-08-30T14:16:54;8.35;;;4.38;;
56399;SDS011;42298;53.638;9.876;2023-08-30T14:19:21;8.70;;;3.92;;
56399;SDS011;42298;53.638;9.876;2023-08-30T14:21:46;7.40;;;3.60;;
56399;SDS011;42298;53.638;9.876;2023-08-30T14:24:11;7.97;;;4.18;;
56399;SDS011;42298;53.638;9.876;2023-08-30T14:26:37;7.88;;;3.83;;
56399;SDS011;42298;53.638;9.876;2023-08-30T14:29:02;7.32;;;4.05;;
56399;SDS011;42298;53.638;9.876;2023-08-30T14:31:27;6.57;;;3.95;;
56399;SDS011;42298;53.638;9.876;2023-08-30T14:33:56;7.20;;;3.53;;
56399;SDS011;42298;53.638;9.876;2023-08-30T14:36:23;6.80;;;3.78;;
56399;SDS011;42298;53.638;9.876;2023-08-30T14:38:49;8.20;;;3.60;;
56399;SDS011;42298;53.638;9.876;2023-08-30T14:41:15;6.40;;;3.70;;